Time;durP1;ratioP1;P1;durP2;ratioP2;P2;SDS_P1;SDS_P2;PMS_P1;PMS_P2;Temp;Humidity;BMP_temperature;BMP_pressure;BME280_temperature;BME280_humidity;BME280_pressure;Samples;Min_cycle;Max_cycle;Signal;HPM_P1;HPM_P2
2022/09/14 00:01:38;;;;;;;12.77;4.50;;;;;;;;;;7371579;19;20043;-79
2022/09/14 00:04:05;;;;;;;13.60;3.50;;;;;;;;;;7368364;19;20017;-79
2022/09/14 00:06:31;;;;;;;7.85;3.20;;;;;;;;;;7380913;19;20478;-79
2022/09/14 00:08:57;;;;;;;11.88;3.25;;;;;;;;;;7383013;19;20025;-81
2022/09/14 00:11:22;;;;;;;10.27;3.83;;;;;;;;;;7379930;19;20006;-81
2022/09/14 00:13:48;;;;;;;10.75;4.38;;;;;;;;;;7376555;19;20010;-81
2022/09/14 00:16:18;;;;;;;12.73;5.18;;;;;;;;;;7372209;19;20011;-81
2022/09/14 00:18:43;;;;;;;12.80;4.68;;;;;;;;;;7362143;19;20002;-80
2022/09/14 00:21:10;;;;;;;11.52;4.30;;;;;;;;;;7381469;19;20010;-79
2022/09/14 00:23:36;;;;;;;13.45;6.50;;;;;;;;;;7369587;19;20440;-79
2022/09/14 00:26:05;;;;;;;17.35;7.03;;;;;;;;;;7381733;19;20101;-81
2022/09/14 00:28:30;;;;;;;11.80;5.25;;;;;;;;;;7381514;19;20034;-81
2022/09/14 00:30:55;;;;;;;9.20;4.03;;;;;;;;;;7374011;19;20003;-77
2022/09/14 00:33:21;;;;;;;13.10;3.95;;;;;;;;;;7296089;19;20283;-80
2022/09/14 00:35:46;;;;;;;7.97;3.83;;;;;;;;;;7348550;19;20006;-80
2022/09/14 00:38:11;;;;;;;10.07;4.25;;;;;;;;;;7380802;19;20255;-81
2022/09/14 00:40:37;;;;;;;11.00;3.90;;;;;;;;;;7379301;19;20200;-81
2022/09/14 00:43:04;;;;;;;14.77;4.72;;;;;;;;;;7371559;19;20027;-77
2022/09/14 00:45:30;;;;;;;9.05;4.60;;;;;;;;;;7376547;19;20473;-81
2022/09/14 00:47:56;;;;;;;13.48;4.78;;;;;;;;;;7374820;19;20014;-82
2022/09/14 00:50:21;;;;;;;13.00;5.20;;;;;;;;;;7381018;19;20074;-79
2022/09/14 00:52:47;;;;;;;10.77;4.47;;;;;;;;;;7378988;19;20554;-76
2022/09/14 00:55:14;;;;;;;10.57;4.15;;;;;;;;;;7382175;19;20058;-81
2022/09/14 00:57:41;;;;;;;9.23;4.53;;;;;;;;;;7372276;19;20014;-80
2022/09/14 01:00:09;;;;;;;10.10;3.83;;;;;;;;;;7374916;19;20022;-81
2022/09/14 01:02:34;;;;;;;11.00;4.18;;;;;;;;;;7375495;19;20022;-82
2022/09/14 01:04:59;;;;;;;14.93;4.20;;;;;;;;;;7328733;19;20452;-82
2022/09/14 01:07:43;;;;;;;7.57;3.80;;;;;;;;;;7348612;19;20003;-83
2022/09/14 01:10:11;;;;;;;9.50;3.92;;;;;;;;;;7377998;19;20006;-83
2022/09/14 01:12:42;;;;;;;9.02;3.72;;;;;;;;;;7366756;19;20079;-82
2022/09/14 01:15:29;;;;;;;10.20;4.65;;;;;;;;;;7383770;19;20342;-79
2022/09/14 01:18:00;;;;;;;13.13;4.38;;;;;;;;;;7373753;19;20006;-78
2022/09/14 01:20:28;;;;;;;11.57;4.80;;;;;;;;;;7379333;19;20010;-80
2022/09/14 01:23:07;;;;;;;10.73;4.38;;;;;;;;;;7376966;19;20102;-78
2022/09/14 01:25:50;;;;;;;10.65;4.40;;;;;;;;;;7368903;19;20129;-81
2022/09/14 01:28:22;;;;;;;11.15;4.43;;;;;;;;;;7373343;19;20027;-79
2022/09/14 01:30:50;;;;;;;12.15;4.90;;;;;;;;;;7379171;19;20066;-81
2022/09/14 01:33:20;;;;;;;10.48;4.38;;;;;;;;;;7374719;19;20700;-79
2022/09/14 01:35:49;;;;;;;8.38;3.83;;;;;;;;;;7381872;19;20371;-80
2022/09/14 01:38:20;;;;;;;9.07;4.07;;;;;;;;;;7380707;19;20364;-80
2022/09/14 01:40:48;;;;;;;10.00;4.63;;;;;;;;;;7377861;19;20034;-80
2022/09/14 01:43:28;;;;;;;12.05;4.97;;;;;;;;;;7373444;19;20093;-82
2022/09/14 01:45:59;;;;;;;13.20;5.88;;;;;;;;;;7368664;19;20014;-80
2022/09/14 01:48:29;;;;;;;12.40;5.60;;;;;;;;;;7373664;19;20537;-80
2022/09/14 01:50:56;;;;;;;13.13;6.03;;;;;;;;;;7377141;19;20351;-81
2022/09/14 01:53:26;;;;;;;13.45;6.05;;;;;;;;;;7371907;19;20002;-80
2022/09/14 01:55:55;;;;;;;9.68;5.60;;;;;;;;;;7371876;19;20688;-81
2022/09/14 01:58:24;;;;;;;13.02;5.90;;;;;;;;;;7373212;19;20011;-82
2022/09/14 02:00:52;;;;;;;14.10;6.47;;;;;;;;;;7377387;19;20034;-81
2022/09/14 02:03:21;;;;;;;12.95;6.53;;;;;;;;;;7373112;19;20755;-79
2022/09/14 02:06:02;;;;;;;11.18;5.97;;;;;;;;;;7366427;19;20017;-81
2022/09/14 02:08:28;;;;;;;13.63;7.07;;;;;;;;;;7370904;19;20078;-78
2022/09/14 02:10:54;;;;;;;12.43;5.88;;;;;;;;;;7369606;19;20446;-79
2022/09/14 02:13:19;;;;;;;9.82;5.07;;;;;;;;;;7373615;19;20471;-81
2022/09/14 02:15:44;;;;;;;11.10;5.47;;;;;;;;;;7377087;19;20006;-80
2022/09/14 02:18:10;;;;;;;9.55;4.32;;;;;;;;;;7371530;19;20375;-82
2022/09/14 02:20:41;;;;;;;10.73;4.50;;;;;;;;;;7373238;19;20111;-81
2022/09/14 02:23:07;;;;;;;8.60;3.80;;;;;;;;;;7373109;19;20047;-82
2022/09/14 02:25:34;;;;;;;7.80;3.85;;;;;;;;;;7368152;19;20018;-81
2022/09/14 02:27:59;;;;;;;7.90;3.50;;;;;;;;;;7363285;19;20110;-80
2022/09/14 02:30:25;;;;;;;7.97;3.50;;;;;;;;;;7371264;19;20027;-79
2022/09/14 02:32:51;;;;;;;8.05;3.70;;;;;;;;;;7362810;19;20476;-78
2022/09/14 02:35:24;;;;;;;10.10;3.95;;;;;;;;;;7364053;19;20025;-82
2022/09/14 02:37:49;;;;;;;8.23;3.22;;;;;;;;;;7373698;19;20007;-80
2022/09/14 02:40:14;;;;;;;6.97;3.03;;;;;;;;;;7362161;19;20385;-81
2022/09/14 02:42:49;;;;;;;9.07;3.95;;;;;;;;;;7373682;19;20078;-78
2022/09/14 02:45:14;;;;;;;9.35;3.72;;;;;;;;;;7371985;19;20010;-82
2022/09/14 02:47:45;;;;;;;8.83;3.27;;;;;;;;;;7363001;19;20062;-81
2022/09/14 02:50:19;;;;;;;7.03;3.25;;;;;;;;;;7373230;19;20256;-81
2022/09/14 02:52:44;;;;;;;;;;;;;;;;;;7374702;19;20022;-82
2022/09/14 02:55:11;;;;;;;7.40;3.20;;;;;;;;;;7370371;19;19919;-79
2022/09/14 02:57:55;;;;;;;9.30;3.63;;;;;;;;;;7372557;19;20517;-82
2022/09/14 03:00:20;;;;;;;7.25;3.30;;;;;;;;;;7378427;19;20014;-81
2022/09/14 03:02:45;;;;;;;7.05;3.47;;;;;;;;;;7368979;19;20006;-81
2022/09/14 03:05:11;;;;;;;7.80;3.60;;;;;;;;;;7359594;19;20092;-82
2022/09/14 03:07:36;;;;;;;7.05;3.60;;;;;;;;;;7373669;19;20300;-81
2022/09/14 03:10:02;;;;;;;8.55;4.32;;;;;;;;;;7359683;19;20017;-80
2022/09/14 03:12:27;;;;;;;6.82;4.03;;;;;;;;;;7372090;19;20467;-80
2022/09/14 03:14:52;;;;;;;8.88;4.07;;;;;;;;;;7371070;19;20142;-83
2022/09/14 03:17:17;;;;;;;7.23;3.87;;;;;;;;;;7359125;19;20017;-81
2022/09/14 03:19:42;;;;;;;6.13;3.40;;;;;;;;;;7372418;19;20062;-81
2022/09/14 03:22:08;;;;;;;7.35;3.65;;;;;;;;;;7375833;19;20006;-82
2022/09/14 03:24:33;;;;;;;7.18;3.35;;;;;;;;;;7371140;19;20014;-78
2022/09/14 03:26:58;;;;;;;6.88;3.33;;;;;;;;;;7365144;19;20075;-81
2022/09/14 03:29:24;;;;;;;8.15;3.88;;;;;;;;;;7372798;19;20598;-82
2022/09/14 03:31:49;;;;;;;7.20;3.20;;;;;;;;;;7370051;19;20601;-81
2022/09/14 03:34:14;;;;;;;6.13;3.13;;;;;;;;;;7367633;19;20003;-82
2022/09/14 03:36:39;;;;;;;6.60;2.72;;;;;;;;;;7369900;19;20601;-78
2022/09/14 03:39:04;;;;;;;7.80;3.50;;;;;;;;;;7359801;19;20450;-77
2022/09/14 03:41:29;;;;;;;7.77;3.77;;;;;;;;;;7369873;19;20735;-79
2022/09/14 03:43:55;;;;;;;7.07;3.53;;;;;;;;;;7358572;19;20343;-78
2022/09/14 03:46:21;;;;;;;7.80;4.00;;;;;;;;;;7370598;19;20852;-80
2022/09/14 03:48:47;;;;;;;6.18;3.30;;;;;;;;;;7366594;19;20109;-80
2022/09/14 03:51:13;;;;;;;8.05;3.60;;;;;;;;;;7365787;19;20054;-83
2022/09/14 03:53:38;;;;;;;10.73;4.22;;;;;;;;;;7371773;19;20011;-79
2022/09/14 03:56:11;;;;;;;7.43;4.63;;;;;;;;;;7372269;19;21013;-83
2022/09/14 03:58:37;;;;;;;10.98;4.70;;;;;;;;;;7364687;19;20601;-82
2022/09/14 04:01:03;;;;;;;7.70;4.47;;;;;;;;;;7365102;19;20481;-82
2022/09/14 04:03:29;;;;;;;7.55;3.90;;;;;;;;;;7366863;19;20554;-81
2022/09/14 04:05:55;;;;;;;8.38;4.28;;;;;;;;;;7365219;19;20011;-80
2022/09/14 04:08:20;;;;;;;8.75;4.72;;;;;;;;;;7372309;19;20114;-81
2022/09/14 04:10:45;;;;;;;8.63;4.22;;;;;;;;;;7368409;19;20006;-81
2022/09/14 04:13:11;;;;;;;7.10;3.67;;;;;;;;;;7361988;19;20050;-81
2022/09/14 04:15:36;;;;;;;6.93;3.70;;;;;;;;;;7366675;19;20009;-78
2022/09/14 04:18:01;;;;;;;8.33;4.10;;;;;;;;;;7370121;19;20003;-79
2022/09/14 04:20:26;;;;;;;7.17;4.30;;;;;;;;;;7370848;19;20717;-81
2022/09/14 04:22:51;;;;;;;7.20;3.57;;;;;;;;;;7368404;19;20010;-79
2022/09/14 04:25:16;;;;;;;5.78;3.38;;;;;;;;;;7371998;19;20549;-81
2022/09/14 04:27:42;;;;;;;6.63;3.65;;;;;;;;;;7372863;19;21072;-79
2022/09/14 04:30:07;;;;;;;6.35;3.00;;;;;;;;;;7376287;19;20385;-82
2022/09/14 04:32:32;;;;;;;7.07;3.33;;;;;;;;;;7353724;19;20011;-78
2022/09/14 04:34:58;;;;;;;5.97;2.97;;;;;;;;;;7376450;19;20505;-79
2022/09/14 04:37:23;;;;;;;6.63;3.20;;;;;;;;;;7379334;19;20002;-79
2022/09/14 04:39:48;;;;;;;7.87;4.07;;;;;;;;;;7367868;19;20018;-81
2022/09/14 04:42:13;;;;;;;7.95;2.90;;;;;;;;;;7373860;19;20263;-81
2022/09/14 04:44:39;;;;;;;6.80;2.97;;;;;;;;;;7373295;19;20360;-82
2022/09/14 04:47:04;;;;;;;9.90;3.80;;;;;;;;;;7373819;19;20010;-79
2022/09/14 04:49:29;;;;;;;6.63;3.30;;;;;;;;;;7373258;19;20284;-82
2022/09/14 04:51:55;;;;;;;12.45;3.47;;;;;;;;;;7376580;19;20267;-79
2022/09/14 04:54:20;;;;;;;8.88;3.30;;;;;;;;;;7376995;19;20133;-85
2022/09/14 04:56:45;;;;;;;6.60;3.10;;;;;;;;;;7356267;19;20037;-78
2022/09/14 04:59:10;;;;;;;8.40;3.47;;;;;;;;;;7376448;19;20002;-79
2022/09/14 05:01:37;;;;;;;7.15;3.60;;;;;;;;;;7374379;19;20794;-81
2022/09/14 05:04:02;;;;;;;6.70;3.75;;;;;;;;;;7372437;19;20019;-81
2022/09/14 05:06:29;;;;;;;10.82;4.60;;;;;;;;;;7367873;19;20017;-79
2022/09/14 05:08:55;;;;;;;7.35;3.25;;;;;;;;;;7373237;19;20011;-81
2022/09/14 05:11:21;;;;;;;7.38;3.28;;;;;;;;;;7369999;19;20319;-82
2022/09/14 05:13:46;;;;;;;5.68;3.03;;;;;;;;;;7373374;19;20519;-82
2022/09/14 05:16:11;;;;;;;7.27;3.83;;;;;;;;;;7368997;19;21813;-81
2022/09/14 05:18:37;;;;;;;6.10;3.60;;;;;;;;;;7371151;19;20272;-78
2022/09/14 05:21:03;;;;;;;7.07;3.13;;;;;;;;;;7370694;19;20020;-78
2022/09/14 05:23:28;;;;;;;8.43;3.22;;;;;;;;;;7364676;19;20589;-82
2022/09/14 05:25:54;;;;;;;7.47;3.63;;;;;;;;;;7374258;19;20010;-80
2022/09/14 05:28:19;;;;;;;8.75;3.70;;;;;;;;;;7371905;19;20010;-82
2022/09/14 05:30:44;;;;;;;10.40;4.80;;;;;;;;;;7366139;19;20511;-80
2022/09/14 05:33:09;;;;;;;10.43;4.33;;;;;;;;;;7367702;19;20003;-80
2022/09/14 05:35:34;;;;;;;9.00;4.00;;;;;;;;;;7368580;19;20351;-77
2022/09/14 05:38:00;;;;;;;11.53;3.90;;;;;;;;;;7377169;19;20074;-81
2022/09/14 05:40:25;;;;;;;10.47;3.77;;;;;;;;;;7375170;19;20246;-78
2022/09/14 05:42:50;;;;;;;9.03;4.37;;;;;;;;;;7366851;19;20283;-78
2022/09/14 05:45:15;;;;;;;12.37;4.60;;;;;;;;;;7379428;19;20077;-80
2022/09/14 05:47:40;;;;;;;12.98;4.22;;;;;;;;;;7371420;19;20945;-80
2022/09/14 05:50:07;;;;;;;9.27;4.27;;;;;;;;;;7380378;19;20009;-81
2022/09/14 05:52:32;;;;;;;15.73;5.10;;;;;;;;;;7363288;19;20078;-80
2022/09/14 05:54:57;;;;;;;12.03;5.80;;;;;;;;;;7376848;19;20062;-82
2022/09/14 05:57:23;;;;;;;8.95;5.30;;;;;;;;;;7374036;19;20255;-82
2022/09/14 05:59:48;;;;;;;15.13;5.20;;;;;;;;;;7368792;19;20017;-81
2022/09/14 06:02:13;;;;;;;9.18;4.85;;;;;;;;;;7373091;19;20124;-81
2022/09/14 06:04:38;;;;;;;11.90;5.40;;;;;;;;;;7360955;19;20026;-81
2022/09/14 06:07:03;;;;;;;10.30;4.70;;;;;;;;;;7373617;19;20439;-78
2022/09/14 06:09:29;;;;;;;12.75;6.55;;;;;;;;;;7375567;19;20256;-77
2022/09/14 06:11:54;;;;;;;11.30;6.60;;;;;;;;;;7372458;19;20353;-79
2022/09/14 06:14:20;;;;;;;12.90;6.80;;;;;;;;;;7374743;19;20300;-79
2022/09/14 06:16:45;;;;;;;12.57;6.28;;;;;;;;;;7360977;19;20010;-79
2022/09/14 06:19:13;;;;;;;10.48;7.18;;;;;;;;;;7358814;19;20014;-79
2022/09/14 06:21:38;;;;;;;12.93;6.25;;;;;;;;;;7368218;19;20010;-76
2022/09/14 06:24:03;;;;;;;10.55;6.03;;;;;;;;;;7343481;19;20034;-75
2022/09/14 06:26:29;;;;;;;8.87;5.60;;;;;;;;;;7366756;19;20010;-78
2022/09/14 06:28:54;;;;;;;8.93;5.72;;;;;;;;;;7370514;19;20315;-80
2022/09/14 06:31:21;;;;;;;12.60;6.35;;;;;;;;;;7373678;19;20443;-80
2022/09/14 06:33:47;;;;;;;11.57;5.45;;;;;;;;;;7367998;19;20377;-81
2022/09/14 06:36:14;;;;;;;12.50;6.10;;;;;;;;;;7366906;19;20463;-81
2022/09/14 06:38:39;;;;;;;12.35;6.45;;;;;;;;;;7370077;19;20627;-81
2022/09/14 06:41:06;;;;;;;9.05;5.30;;;;;;;;;;7377574;19;20011;-81
2022/09/14 06:43:33;;;;;;;11.77;6.43;;;;;;;;;;7381432;19;20010;-81
2022/09/14 06:45:59;;;;;;;9.13;5.43;;;;;;;;;;7375174;19;20485;-80
2022/09/14 06:48:24;;;;;;;10.48;5.93;;;;;;;;;;7376584;19;20015;-81
2022/09/14 06:50:50;;;;;;;9.15;5.78;;;;;;;;;;7379156;19;20003;-80
2022/09/14 06:53:16;;;;;;;9.15;5.40;;;;;;;;;;7381414;19;20354;-80
2022/09/14 06:55:43;;;;;;;12.23;5.05;;;;;;;;;;7369177;19;20006;-80
2022/09/14 06:58:08;;;;;;;9.88;6.43;;;;;;;;;;7374570;19;20013;-80
2022/09/14 07:00:34;;;;;;;11.48;6.18;;;;;;;;;;7375800;19;20522;-80
2022/09/14 07:02:59;;;;;;;11.50;6.22;;;;;;;;;;7371831;19;20014;-81
2022/09/14 07:05:24;;;;;;;12.70;6.53;;;;;;;;;;7376425;19;20038;-81
2022/09/14 07:07:51;;;;;;;11.00;6.47;;;;;;;;;;7381503;19;20283;-81
2022/09/14 07:10:17;;;;;;;11.88;6.88;;;;;;;;;;7377734;19;20283;-81
2022/09/14 07:12:42;;;;;;;19.10;8.00;;;;;;;;;;7371944;19;20017;-80
2022/09/14 07:15:07;;;;;;;10.57;6.63;;;;;;;;;;7370158;19;21255;-80
2022/09/14 07:17:35;;;;;;;13.50;8.05;;;;;;;;;;7375875;19;20263;-80
2022/09/14 07:20:00;;;;;;;15.05;7.55;;;;;;;;;;7378042;19;20015;-81
2022/09/14 07:22:26;;;;;;;13.27;8.82;;;;;;;;;;7367689;19;20010;-80
2022/09/14 07:24:51;;;;;;;17.27;8.13;;;;;;;;;;7377089;19;20021;-80
2022/09/14 07:27:16;;;;;;;15.55;9.15;;;;;;;;;;7369674;19;20617;-80
2022/09/14 07:29:41;;;;;;;19.57;10.20;;;;;;;;;;7377290;19;20021;-81
2022/09/14 07:32:06;;;;;;;23.33;11.50;;;;;;;;;;7380407;19;20035;-80
2022/09/14 07:34:32;;;;;;;18.37;11.60;;;;;;;;;;7368824;19;20463;-80
2022/09/14 07:36:57;;;;;;;24.53;13.00;;;;;;;;;;7365238;19;20011;-82
2022/09/14 07:39:22;;;;;;;26.27;14.38;;;;;;;;;;7375371;19;20007;-82
2022/09/14 07:41:47;;;;;;;26.85;14.38;;;;;;;;;;7377426;19;20039;-82
2022/09/14 07:44:14;;;;;;;26.75;14.60;;;;;;;;;;7366778;19;20078;-81
2022/09/14 07:46:40;;;;;;;27.05;14.77;;;;;;;;;;7368743;19;20125;-82
2022/09/14 07:49:06;;;;;;;36.28;15.25;;;;;;;;;;7375092;19;20010;-81
2022/09/14 07:51:31;;;;;;;31.77;17.23;;;;;;;;;;7382162;19;20010;-81
2022/09/14 07:53:57;;;;;;;34.42;17.08;;;;;;;;;;7381261;19;20022;-81
2022/09/14 07:56:24;;;;;;;33.92;15.80;;;;;;;;;;7387052;19;20350;-80
2022/09/14 07:58:52;;;;;;;34.10;16.88;;;;;;;;;;7388875;19;20015;-81
2022/09/14 08:01:17;;;;;;;35.17;17.52;;;;;;;;;;7387737;19;20038;-81
2022/09/14 08:03:43;;;;;;;30.20;15.40;;;;;;;;;;7383812;19;20398;-81
2022/09/14 08:06:10;;;;;;;36.00;17.50;;;;;;;;;;7372404;19;20271;-81
2022/09/14 08:08:36;;;;;;;36.70;16.02;;;;;;;;;;7387617;19;20451;-81
2022/09/14 08:11:04;;;;;;;32.63;16.88;;;;;;;;;;7386472;19;20018;-80
2022/09/14 08:13:29;;;;;;;38.60;17.65;;;;;;;;;;7390750;19;20013;-81
2022/09/14 08:15:57;;;;;;;37.08;17.75;;;;;;;;;;7383931;19;20006;-81
2022/09/14 08:18:23;;;;;;;32.45;17.02;;;;;;;;;;7385079;19;20039;-81
2022/09/14 08:20:48;;;;;;;38.77;18.70;;;;;;;;;;7386581;19;20010;-81
2022/09/14 08:23:13;;;;;;;36.63;17.35;;;;;;;;;;7390758;19;20013;-81
2022/09/14 08:25:38;;;;;;;37.53;17.67;;;;;;;;;;7381986;19;20020;-81
2022/09/14 08:28:04;;;;;;;36.80;19.00;;;;;;;;;;7386404;19;20299;-81
2022/09/14 08:30:29;;;;;;;35.03;17.00;;;;;;;;;;7389556;19;20450;-81
2022/09/14 08:32:54;;;;;;;37.97;18.88;;;;;;;;;;7382335;19;20014;-81
2022/09/14 08:35:20;;;;;;;36.03;19.03;;;;;;;;;;7381475;19;20023;-80
2022/09/14 08:37:46;;;;;;;32.85;17.20;;;;;;;;;;7383990;19;20267;-81
2022/09/14 08:40:12;;;;;;;28.52;16.58;;;;;;;;;;7381447;19;20060;-81
2022/09/14 08:42:37;;;;;;;37.50;18.10;;;;;;;;;;7375646;19;20077;-81
2022/09/14 08:45:04;;;;;;;33.22;18.40;;;;;;;;;;7372556;19;20347;-81
2022/09/14 08:47:38;;;;;;;31.33;16.55;;;;;;;;;;7376786;19;20352;-81
2022/09/14 08:50:16;;;;;;;36.25;18.42;;;;;;;;;;7383586;19;20022;-80
2022/09/14 08:52:49;;;;;;;31.63;17.50;;;;;;;;;;7376020;19;20066;-80
2022/09/14 08:55:20;;;;;;;34.17;18.95;;;;;;;;;;7367377;19;20010;-80
2022/09/14 08:57:50;;;;;;;34.75;18.05;;;;;;;;;;7384569;19;20545;-80
2022/09/14 09:00:17;;;;;;;34.80;17.77;;;;;;;;;;7387333;19;20573;-80
2022/09/14 09:03:08;;;;;;;33.17;18.15;;;;;;;;;;7374858;19;20014;-80
2022/09/14 09:05:42;;;;;;;39.05;19.98;;;;;;;;;;7376712;19;20010;-80
2022/09/14 09:08:13;;;;;;;32.00;17.33;;;;;;;;;;7381490;19;20018;-80
2022/09/14 09:10:39;;;;;;;34.63;18.27;;;;;;;;;;7377484;19;20014;-80
2022/09/14 09:13:06;;;;;;;35.78;18.75;;;;;;;;;;7383159;19;20025;-81
2022/09/14 09:15:33;;;;;;;34.05;18.42;;;;;;;;;;7384688;19;20462;-81
2022/09/14 09:18:02;;;;;;;37.45;18.75;;;;;;;;;;7382990;19;20026;-81
2022/09/14 09:20:29;;;;;;;38.95;20.63;;;;;;;;;;7384650;19;20082;-81
2022/09/14 09:23:09;;;;;;;36.22;19.90;;;;;;;;;;7385351;19;20484;-81
2022/09/14 09:25:58;;;;;;;38.22;19.92;;;;;;;;;;7375836;19;20013;-81
2022/09/14 09:28:24;;;;;;;37.75;19.92;;;;;;;;;;7379037;19;20058;-82
2022/09/14 09:30:50;;;;;;;34.53;19.42;;;;;;;;;;7373196;19;20464;-80
2022/09/14 09:33:22;;;;;;;38.35;19.92;;;;;;;;;;7376866;19;20017;-81
2022/09/14 09:35:49;;;;;;;35.80;17.63;;;;;;;;;;7383823;19;20006;-80
2022/09/14 09:38:15;;;;;;;34.25;18.38;;;;;;;;;;7382178;19;20010;-81
2022/09/14 09:40:44;;;;;;;28.88;16.95;;;;;;;;;;7383693;19;20014;-82
2022/09/14 09:43:14;;;;;;;28.45;16.33;;;;;;;;;;7379835;19;20368;-81
2022/09/14 09:45:48;;;;;;;31.60;16.15;;;;;;;;;;7384810;19;20336;-82
2022/09/14 09:48:14;;;;;;;32.33;15.48;;;;;;;;;;7381252;19;20062;-80
2022/09/14 09:50:47;;;;;;;31.17;16.85;;;;;;;;;;7372048;19;20015;-81
2022/09/14 09:53:14;;;;;;;29.75;15.85;;;;;;;;;;7383062;19;20005;-81
2022/09/14 09:55:40;;;;;;;25.23;13.13;;;;;;;;;;7383158;19;20021;-81
2022/09/14 09:58:24;;;;;;;22.55;12.75;;;;;;;;;;7378613;19;20034;-80
2022/09/14 10:00:56;;;;;;;25.15;12.05;;;;;;;;;;7376916;19;20021;-79
2022/09/14 10:03:30;;;;;;;19.52;10.13;;;;;;;;;;7378942;19;20010;-80
2022/09/14 10:06:01;;;;;;;19.05;10.85;;;;;;;;;;7381348;19;20014;-79
2022/09/14 10:08:26;;;;;;;18.73;10.15;;;;;;;;;;7377605;19;20018;-79
2022/09/14 10:10:52;;;;;;;16.42;8.93;;;;;;;;;;7380126;19;20320;-79
2022/09/14 10:13:21;;;;;;;17.30;9.65;;;;;;;;;;7379633;19;20011;-79
2022/09/14 10:15:48;;;;;;;17.48;10.70;;;;;;;;;;7373663;19;20021;-79
2022/09/14 10:18:13;;;;;;;18.42;9.68;;;;;;;;;;7378254;19;20033;-78
2022/09/14 10:20:40;;;;;;;17.53;10.23;;;;;;;;;;7374777;19;20089;-79
2022/09/14 10:23:17;;;;;;;15.68;9.00;;;;;;;;;;7381746;19;20110;-79
2022/09/14 10:25:44;;;;;;;12.82;8.50;;;;;;;;;;7383370;19;20027;-79
2022/09/14 10:28:31;;;;;;;13.93;7.95;;;;;;;;;;7377409;19;20015;-79
2022/09/14 10:31:01;;;;;;;11.43;6.97;;;;;;;;;;7379657;19;20038;-79
2022/09/14 10:33:27;;;;;;;13.48;6.78;;;;;;;;;;7378174;19;20018;-79
2022/09/14 10:35:55;;;;;;;10.73;6.57;;;;;;;;;;7368849;19;20470;-80
2022/09/14 10:38:28;;;;;;;11.13;6.88;;;;;;;;;;7383471;19;21278;-80
2022/09/14 10:41:04;;;;;;;8.73;5.60;;;;;;;;;;7381477;19;20466;-78
2022/09/14 10:43:49;;;;;;;11.77;6.63;;;;;;;;;;7384421;19;20014;-82
2022/09/14 10:46:19;;;;;;;9.07;5.43;;;;;;;;;;7380882;19;20014;-80
2022/09/14 10:49:03;;;;;;;13.77;6.65;;;;;;;;;;7378030;19;20482;-79
2022/09/14 10:51:37;;;;;;;10.57;6.20;;;;;;;;;;7379598;19;20014;-80
2022/09/14 10:54:02;;;;;;;13.73;6.93;;;;;;;;;;7381757;19;20010;-80
2022/09/14 10:56:46;;;;;;;11.95;7.15;;;;;;;;;;7370488;19;20127;-80
2022/09/14 10:59:28;;;;;;;12.90;7.25;;;;;;;;;;7375778;19;20030;-80
2022/09/14 11:02:12;;;;;;;9.77;6.15;;;;;;;;;;7373495;19;20019;-79
2022/09/14 11:04:52;;;;;;;9.40;5.38;;;;;;;;;;7373617;19;20013;-81
2022/09/14 11:07:30;;;;;;;8.90;5.90;;;;;;;;;;7365209;19;20912;-80
2022/09/14 11:10:16;;;;;;;13.57;5.88;;;;;;;;;;7347181;19;20022;-80
2022/09/14 11:12:47;;;;;;;11.18;5.32;;;;;;;;;;7355682;19;20002;-81
2022/09/14 11:15:48;;;;;;;9.60;5.68;;;;;;;;;;7334609;19;20401;-82
2022/09/14 11:18:32;;;;;;;9.50;5.40;;;;;;;;;;7357519;19;20018;-81
2022/09/14 11:20:57;;;;;;;;;;;;;;;;;;7369876;19;20034;-83
2022/09/14 11:23:37;;;;;;;9.32;5.13;;;;;;;;;;7377159;19;19918;-82
2022/09/14 11:26:06;;;;;;;10.35;5.15;;;;;;;;;;7374044;19;20015;-83
2022/09/14 11:28:50;;;;;;;7.13;4.15;;;;;;;;;;7365208;19;20003;-82
2022/09/14 11:31:15;;;;;;;;;;;;;;;;;;7351048;19;20377;-81
2022/09/14 11:33:58;;;;;;;10.60;4.95;;;;;;;;;;7363013;19;19919;-80
2022/09/14 11:36:46;;;;;;;8.35;4.35;;;;;;;;;;7374580;19;20108;-80
2022/09/14 11:39:18;;;;;;;9.18;4.75;;;;;;;;;;7387018;19;20463;-81
2022/09/14 11:41:43;;;;;;;8.60;5.03;;;;;;;;;;7358522;19;20014;-80
2022/09/14 11:44:11;;;;;;;9.52;5.00;;;;;;;;;;7374684;19;20351;-82
2022/09/14 11:46:40;;;;;;;12.98;4.97;;;;;;;;;;7373729;19;20010;-80
2022/09/14 11:49:20;;;;;;;11.73;4.95;;;;;;;;;;7359176;19;20060;-79
2022/09/14 11:51:54;;;;;;;9.32;5.30;;;;;;;;;;7374102;19;20043;-82
2022/09/14 11:54:20;;;;;;;11.25;5.43;;;;;;;;;;7380197;19;20011;-82
2022/09/14 11:56:50;;;;;;;12.80;6.57;;;;;;;;;;7371220;19;20014;-80
2022/09/14 11:59:33;;;;;;;11.65;7.05;;;;;;;;;;7363805;19;20493;-80
2022/09/14 12:02:21;;;;;;;14.32;7.53;;;;;;;;;;7375204;19;20031;-82
2022/09/14 12:05:05;;;;;;;15.98;8.02;;;;;;;;;;7375732;19;20350;-82
2022/09/14 12:07:42;;;;;;;15.35;7.70;;;;;;;;;;7379623;19;20078;-81
2022/09/14 12:10:14;;;;;;;15.60;7.80;;;;;;;;;;7366579;19;20787;-81
2022/09/14 12:12:40;;;;;;;14.70;8.20;;;;;;;;;;7376329;19;20018;-82
2022/09/14 12:15:24;;;;;;;13.35;8.18;;;;;;;;;;7364892;19;20101;-80
2022/09/14 12:18:12;;;;;;;16.15;8.13;;;;;;;;;;7360352;19;20533;-80
2022/09/14 12:21:01;;;;;;;16.02;9.48;;;;;;;;;;7373114;19;20010;-81
2022/09/14 12:23:36;;;;;;;15.98;8.05;;;;;;;;;;7344184;19;20014;-80
2022/09/14 12:26:10;;;;;;;15.95;8.95;;;;;;;;;;7364377;19;20039;-82
2022/09/14 12:28:35;;;;;;;14.60;8.00;;;;;;;;;;7369799;19;20066;-81
2022/09/14 12:31:03;;;;;;;15.63;8.95;;;;;;;;;;7362071;19;20699;-80
2022/09/14 12:33:32;;;;;;;20.77;9.68;;;;;;;;;;7363548;19;20140;-81
2022/09/14 12:35:57;;;;;;;18.20;8.02;;;;;;;;;;7375879;19;20983;-82
2022/09/14 12:38:28;;;;;;;16.57;9.43;;;;;;;;;;7376855;19;20018;-82
2022/09/14 12:41:23;;;;;;;15.70;8.77;;;;;;;;;;7383655;19;20014;-81
2022/09/14 12:43:48;;;;;;;19.98;10.07;;;;;;;;;;7376497;19;20577;-82
2022/09/14 12:46:19;;;;;;;18.90;9.67;;;;;;;;;;7381889;19;20042;-81
2022/09/14 12:48:45;;;;;;;20.15;11.25;;;;;;;;;;7358844;19;20275;-82
2022/09/14 12:51:12;;;;;;;18.17;11.23;;;;;;;;;;7369889;19;20011;-82
2022/09/14 12:53:39;;;;;;;20.08;10.45;;;;;;;;;;7371115;19;20010;-82
2022/09/14 12:56:05;;;;;;;24.27;12.02;;;;;;;;;;7377379;19;20113;-82
2022/09/14 12:58:42;;;;;;;18.52;10.40;;;;;;;;;;7379089;19;20017;-81
2022/09/14 13:01:16;;;;;;;21.88;11.40;;;;;;;;;;7383672;19;20062;-81
2022/09/14 13:03:49;;;;;;;23.35;12.85;;;;;;;;;;7356355;19;20017;-80
2022/09/14 13:06:14;;;;;;;19.13;11.40;;;;;;;;;;7376560;19;20006;-81
2022/09/14 13:08:44;;;;;;;17.40;10.07;;;;;;;;;;7381258;19;20296;-80
2022/09/14 13:11:16;;;;;;;16.58;10.65;;;;;;;;;;7379922;19;20014;-81
2022/09/14 13:13:41;;;;;;;22.05;12.20;;;;;;;;;;7377278;19;20312;-81
2022/09/14 13:16:07;;;;;;;18.95;12.40;;;;;;;;;;7380457;19;20117;-81
2022/09/14 13:18:36;;;;;;;25.35;12.73;;;;;;;;;;7364773;19;20030;-81
2022/09/14 13:21:18;;;;;;;20.73;11.40;;;;;;;;;;7381700;19;20010;-81
2022/09/14 13:23:44;;;;;;;10.80;5.00;;;;;;;;;;7380847;19;20020;-81
2022/09/14 13:26:15;;;;;;;9.17;4.10;;;;;;;;;;7369843;19;20088;-81
2022/09/14 13:28:42;;;;;;;10.77;4.20;;;;;;;;;;7383411;19;20356;-80
2022/09/14 13:31:10;;;;;;;13.23;6.13;;;;;;;;;;7381622;19;20903;-81
2022/09/14 13:33:36;;;;;;;13.50;7.32;;;;;;;;;;7366286;19;20014;-80
2022/09/14 13:36:02;;;;;;;19.20;10.27;;;;;;;;;;7380034;19;20022;-82
2022/09/14 13:38:32;;;;;;;18.90;10.75;;;;;;;;;;7384034;19;20589;-82
2022/09/14 13:41:08;;;;;;;17.00;9.10;;;;;;;;;;7378004;19;20521;-81
2022/09/14 13:43:33;;;;;;;14.63;9.07;;;;;;;;;;7383209;19;20047;-81
2022/09/14 13:45:58;;;;;;;18.15;8.27;;;;;;;;;;7382541;19;20048;-82
2022/09/14 13:48:24;;;;;;;17.08;6.25;;;;;;;;;;7374170;19;20017;-81
2022/09/14 13:50:50;;;;;;;12.43;6.40;;;;;;;;;;7383609;19;20046;-82
2022/09/14 13:53:34;;;;;;;17.83;7.72;;;;;;;;;;7375162;19;20089;-82
2022/09/14 13:55:59;;;;;;;12.18;6.80;;;;;;;;;;7382370;19;20014;-81
2022/09/14 13:58:25;;;;;;;13.00;6.93;;;;;;;;;;7378117;19;20320;-81
2022/09/14 14:00:53;;;;;;;16.17;7.85;;;;;;;;;;7382399;19;20016;-81
2022/09/14 14:03:24;;;;;;;14.05;6.63;;;;;;;;;;7378271;19;20010;-81
2022/09/14 14:05:49;;;;;;;18.38;8.73;;;;;;;;;;7376519;19;20086;-81
2022/09/14 14:08:25;;;;;;;12.45;2.72;;;;;;;;;;7367464;19;20027;-79
2022/09/14 14:10:52;;;;;;;8.40;2.47;;;;;;;;;;7354821;19;20034;-84
2022/09/14 14:13:25;;;;;;;17.17;3.03;;;;;;;;;;7363953;19;20002;-82
2022/09/14 14:15:52;;;;;;;14.35;3.08;;;;;;;;;;7374101;19;20074;-82
2022/09/14 14:18:31;;;;;;;12.43;3.20;;;;;;;;;;7375078;19;20437;-83
2022/09/14 14:21:12;;;;;;;9.68;2.75;;;;;;;;;;7373157;19;20386;-83
2022/09/14 14:23:38;;;;;;;10.25;2.85;;;;;;;;;;7375616;19;20473;-82
2022/09/14 14:26:08;;;;;;;7.47;3.20;;;;;;;;;;7377245;19;20010;-82
2022/09/14 14:28:33;;;;;;;8.88;3.33;;;;;;;;;;7371972;19;20016;-81
2022/09/14 14:31:01;;;;;;;6.68;2.80;;;;;;;;;;7374040;19;20474;-82
2022/09/14 14:33:26;;;;;;;7.72;2.78;;;;;;;;;;7371646;19;20022;-83
2022/09/14 14:35:53;;;;;;;8.33;3.23;;;;;;;;;;7369355;19;20022;-83
2022/09/14 14:38:18;;;;;;;6.18;2.95;;;;;;;;;;7364210;19;20292;-83
2022/09/14 14:40:45;;;;;;;6.60;2.78;;;;;;;;;;7365418;19;20018;-82
2022/09/14 14:43:16;;;;;;;8.68;3.03;;;;;;;;;;7371501;19;20017;-83